Time;durP1;ratioP1;P1;durP2;ratioP2;P2;SDS_P1;SDS_P2;PMS_P1;PMS_P2;Temp;Humidity;BMP_temperature;BMP_pressure;BME280_temperature;BME280_humidity;BME280_pressure;Samples;Min_cycle;Max_cycle;Signal;HPM_P1;HPM_P2
2021/03/28 00:00:52;;;;;;;19.23;5.47;;;;;;;;;;4876561;29;20057;-80
2021/03/28 00:03:45;;;;;;;11.20;3.72;;;9.10;99.90;;;;;;4887543;29;20052;-81
2021/03/28 00:06:27;;;;;;;24.65;4.65;;;9.10;99.90;;;;;;4891855;29;20059;-80
2021/03/28 00:09:19;;;;;;;12.45;4.35;;;9.10;99.90;;;;;;4894196;29;20067;-81
2021/03/28 00:12:06;;;;;;;25.63;5.63;;;9.10;99.90;;;;;;4873429;29;20367;-80
2021/03/28 00:14:36;;;;;;;12.43;3.90;;;9.20;99.90;;;;;;4549020;29;10000573;-80
2021/03/28 00:17:19;;;;;;;13.43;5.32;;;9.10;99.90;;;;;;4884349;29;20061;-81
2021/03/28 00:19:58;;;;;;;22.92;7.57;;;9.00;99.90;;;;;;4884747;29;20067;-80
2021/03/28 00:22:31;;;;;;;11.85;3.92;;;9.00;99.90;;;;;;4885617;29;20221;-80
2021/03/28 00:25:30;;;;;;;12.02;4.05;;;9.10;99.90;;;;;;4889567;29;20060;-80
2021/03/28 00:27:59;;;;;;;19.73;5.75;;;9.10;99.90;;;;;;4890860;29;20091;-81
2021/03/28 00:30:38;;;;;;;17.23;4.10;;;8.90;99.90;;;;;;4886568;29;20045;-81
2021/03/28 00:33:09;;;;;;;15.98;3.40;;;;;;;;;;4891620;29;20053;-81
2021/03/28 00:35:46;;;;;;;12.07;4.27;;;9.00;99.90;;;;;;4885526;29;20511;-80
2021/03/28 00:38:13;;;;;;;21.77;5.57;;;;;;;;;;4886588;29;20053;-81
2021/03/28 00:40:42;;;;;;;18.42;3.97;;;9.10;99.90;;;;;;4873300;29;20773;-82
2021/03/28 00:43:20;;;;;;;13.43;3.55;;;8.90;99.90;;;;;;4892266;29;20044;-80
2021/03/28 00:45:57;;;;;;;13.05;5.88;;;8.90;99.90;;;;;;4885425;29;20056;-81
2021/03/28 00:48:28;;;;;;;23.50;8.25;;;9.00;99.90;;;;;;4905527;29;20065;-80
2021/03/28 00:51:09;;;;;;;19.02;3.50;;;9.00;99.90;;;;;;4890375;29;20056;-81
2021/03/28 00:53:38;;;;;;;27.75;6.32;;;;;;;;;;4876285;29;20508;-78
2021/03/28 00:56:37;;;;;;;13.63;4.30;;;9.00;99.90;;;;;;4893223;29;20065;-80
2021/03/28 00:59:19;;;;;;;19.67;3.90;;;9.20;99.90;;;;;;4898382;29;20053;-81
2021/03/28 01:02:20;;;;;;;13.00;4.43;;;9.00;99.90;;;;;;4866724;29;20147;-80
2021/03/28 01:04:54;;;;;;;19.50;6.30;;;8.90;99.90;;;;;;4897491;29;20067;-80
2021/03/28 01:07:32;;;;;;;30.33;7.78;;;9.00;99.90;;;;;;4894323;29;20071;-81
2021/03/28 01:10:37;;;;;;;21.13;4.13;;;9.00;99.90;;;;;;4895670;29;20057;-79
2021/03/28 01:13:23;;;;;;;18.05;5.68;;;9.00;99.90;;;;;;4885832;29;20060;-80
2021/03/28 01:16:17;;;;;;;20.00;4.13;;;9.30;99.90;;;;;;4892568;29;20060;-79
2021/03/28 01:19:15;;;;;;;21.80;4.97;;;9.10;99.90;;;;;;4864494;29;20064;-79
2021/03/28 01:21:56;;;;;;;17.98;3.92;;;9.00;99.90;;;;;;4894243;29;20053;-80
2021/03/28 01:24:23;;;;;;;16.45;4.93;;;;;;;;;;4891200;29;20061;-81
2021/03/28 01:27:11;;;;;;;27.67;5.78;;;9.00;99.90;;;;;;4888652;29;20579;-81
2021/03/28 01:30:07;;;;;;;13.05;4.70;;;9.00;99.90;;;;;;4892459;29;20068;-79
2021/03/28 01:32:44;;;;;;;20.90;6.38;;;9.00;99.90;;;;;;4886716;29;20071;-82
2021/03/28 01:35:15;;;;;;;19.88;5.45;;;;;;;;;;4907186;29;20643;-81
2021/03/28 01:38:07;;;;;;;21.83;5.63;;;9.10;99.90;;;;;;4869632;29;20048;-82
2021/03/28 01:40:38;;;;;;;9.70;3.28;;;;;;;;;;4887966;29;20049;-80
2021/03/28 01:43:06;;;;;;;15.20;4.40;;;;;;;;;;4889388;29;20500;-80
2021/03/28 01:45:44;;;;;;;17.10;3.20;;;9.20;99.90;;;;;;4898612;29;20048;-80
2021/03/28 01:48:31;;;;;;;17.20;4.55;;;9.20;99.90;;;;;;4893681;29;20068;-80
2021/03/28 01:51:19;;;;;;;18.30;5.28;;;9.00;99.90;;;;;;4897024;29;20059;-81
2021/03/28 01:54:00;;;;;;;26.10;8.98;;;9.30;99.90;;;;;;4913954;29;20080;-80
2021/03/28 01:56:27;;;;;;;;;;;9.20;99.90;;;;;;4885841;29;20057;-81
2021/03/28 01:59:29;;;;;;;27.77;5.75;;;9.20;99.90;;;;;;4872618;29;19943;-82
2021/03/28 02:02:02;;;;;;;14.52;3.53;;;9.30;99.90;;;;;;4892289;29;20063;-83
2021/03/28 02:05:06;;;;;;;17.05;3.80;;;9.50;99.90;;;;;;4878644;29;20060;-81
2021/03/28 02:07:42;;;;;;;18.45;4.05;;;9.40;99.90;;;;;;4899507;29;20060;-79
2021/03/28 02:10:41;;;;;;;16.20;8.57;;;9.30;99.90;;;;;;4904897;29;20064;-80
2021/03/28 02:13:19;;;;;;;14.10;4.25;;;9.40;99.90;;;;;;4896054;29;20048;-80
2021/03/28 02:16:02;;;;;;;18.92;9.23;;;9.40;99.90;;;;;;4898769;29;20048;-80
2021/03/28 02:18:47;;;;;;;22.75;5.40;;;9.50;99.90;;;;;;4892226;29;20056;-78
2021/03/28 02:21:45;;;;;;;14.90;4.63;;;9.20;99.90;;;;;;4895256;29;20068;-80
2021/03/28 02:24:13;;;;;;;16.98;7.18;;;;;;;;;;4895762;29;20492;-81
2021/03/28 02:26:48;;;;;;;18.67;5.25;;;9.50;99.90;;;;;;4893693;29;20044;-78
2021/03/28 02:29:22;;;;;;;17.90;6.18;;;9.50;99.90;;;;;;4896449;29;20057;-81
2021/03/28 02:31:56;;;;;;;9.70;3.53;;;;;;;;;;4878976;29;20059;-80
2021/03/28 02:34:33;;;;;;;23.48;4.70;;;9.50;99.90;;;;;;4889562;29;20061;-80
2021/03/28 02:37:25;;;;;;;33.80;7.00;;;9.60;99.90;;;;;;4897151;29;20063;-80
2021/03/28 02:40:15;;;;;;;26.23;8.90;;;9.60;99.90;;;;;;4896939;29;20512;-80
2021/03/28 02:43:01;;;;;;;19.30;3.83;;;9.50;99.90;;;;;;4894888;29;20067;-78
2021/03/28 02:45:34;;;;;;;18.48;4.05;;;9.50;99.90;;;;;;4896274;29;20045;-80
2021/03/28 02:48:44;;;;;;;16.55;6.40;;;9.30;99.90;;;;;;4896037;29;20064;-79
2021/03/28 02:51:18;;;;;;;13.70;3.85;;;;;;;;;;4881163;29;20145;-77
2021/03/28 02:54:01;;;;;;;28.65;6.50;;;9.40;99.90;;;;;;4870106;29;20492;-81
2021/03/28 02:56:34;;;;;;;15.73;4.20;;;;;;;;;;4909639;29;20056;-81
2021/03/28 02:59:33;;;;;;;14.52;4.15;;;9.40;99.90;;;;;;4898601;29;20075;-80
2021/03/28 03:02:43;;;;;;;16.65;4.72;;;9.40;99.90;;;;;;4893192;29;20052;-82
2021/03/28 03:05:33;;;;;;;17.33;4.35;;;9.40;99.90;;;;;;4900065;29;20448;-81
2021/03/28 03:08:16;;;;;;;14.32;4.28;;;9.60;99.90;;;;;;4885649;29;20057;-80
2021/03/28 03:10:46;;;;;;;15.45;6.43;;;;;;;;;;4902892;29;20052;-79
2021/03/28 03:13:50;;;;;;;15.75;3.67;;;9.30;99.90;;;;;;4886815;29;20060;-82
2021/03/28 03:16:29;;;;;;;21.50;4.53;;;9.30;99.90;;;;;;4904361;29;20060;-81
2021/03/28 03:19:17;;;;;;;33.42;8.07;;;9.30;99.90;;;;;;4906816;29;20057;-81
2021/03/28 03:22:04;;;;;;;13.13;4.50;;;9.30;99.90;;;;;;4901075;29;20060;-81
2021/03/28 03:24:41;;;;;;;13.05;4.78;;;;;;;;;;4897993;29;20072;-81
2021/03/28 03:27:33;;;;;;;12.52;3.95;;;9.30;99.90;;;;;;4897941;29;20555;-79
2021/03/28 03:30:14;;;;;;;19.92;6.90;;;9.20;99.90;;;;;;4896686;29;20052;-80
2021/03/28 03:32:41;;;;;;;;;;;9.30;99.90;;;;;;4892518;29;20057;-80
2021/03/28 03:35:32;;;;;;;7.25;2.63;;;9.20;99.90;;;;;;4897535;29;19933;-81
2021/03/28 03:38:17;;;;;;;21.35;4.43;;;9.10;99.90;;;;;;4912665;29;20060;-79
2021/03/28 03:40:51;;;;;;;14.63;4.65;;;;;;;;;;4886147;29;20138;-81
2021/03/28 03:43:43;;;;;;;17.20;4.15;;;9.10;99.90;;;;;;4898330;29;20413;-82
2021/03/28 03:46:32;;;;;;;18.15;4.47;;;8.80;99.90;;;;;;4899947;29;20546;-81
2021/03/28 03:49:27;;;;;;;20.05;5.03;;;9.10;99.90;;;;;;4900978;29;20056;-80
2021/03/28 03:52:06;;;;;;;15.88;6.05;;;9.10;99.90;;;;;;4895218;29;20452;-79
2021/03/28 03:54:34;;;;;;;18.55;3.75;;;;;;;;;;4895114;29;20063;-83
2021/03/28 03:57:16;;;;;;;18.67;4.72;;;;;;;;;;4895603;29;20049;-85
2021/03/28 04:00:12;;;;;;;15.10;4.20;;;9.10;99.90;;;;;;4898526;29;20543;-82
2021/03/28 04:03:15;;;;;;;17.50;5.80;;;9.10;99.90;;;;;;4902375;29;20048;-81
2021/03/28 04:06:10;;;;;;;25.05;4.20;;;9.10;99.90;;;;;;4898098;29;20087;-82
2021/03/28 04:08:54;;;;;;;16.30;4.90;;;9.10;99.90;;;;;;4908883;29;20527;-81
2021/03/28 04:11:27;;;;;;;21.20;4.72;;;9.20;99.90;;;;;;4896399;29;20056;-82
2021/03/28 04:14:35;;;;;;;15.65;4.57;;;9.10;99.90;;;;;;4895065;29;20072;-80
2021/03/28 04:17:11;;;;;;;21.05;5.45;;;9.20;99.90;;;;;;4891948;29;20095;-80
2021/03/28 04:20:02;;;;;;;15.73;4.22;;;9.70;99.90;;;;;;4897312;29;20068;-81
2021/03/28 04:23:12;;;;;;;14.93;4.82;;;9.30;99.90;;;;;;4895871;29;20531;-81
2021/03/28 04:25:40;;;;;;;17.00;3.40;;;;;;;;;;4895501;29;20056;-81
2021/03/28 04:28:17;;;;;;;30.90;4.68;;;;;;;;;;4879023;29;20060;-84
2021/03/28 04:30:58;;;;;;;10.95;4.72;;;8.90;99.90;;;;;;4890782;29;20091;-82
2021/03/28 04:33:48;;;;;;;20.85;4.97;;;9.30;99.90;;;;;;4897253;29;20048;-81
2021/03/28 04:36:42;;;;;;;16.85;4.95;;;9.30;99.90;;;;;;4880922;29;20059;-78
2021/03/28 04:39:22;;;;;;;14.82;4.82;;;;;;;;;;4881623;29;20138;-82
2021/03/28 04:41:53;;;;;;;15.35;4.45;;;;;;;;;;4896435;29;20075;-82
2021/03/28 04:44:39;;;;;;;13.48;6.35;;;;;;;;;;4896286;29;20048;-81
2021/03/28 04:47:40;;;;;;;21.23;5.05;;;9.30;99.90;;;;;;4893371;29;20516;-85
2021/03/28 04:50:34;;;;;;;;;;;9.30;99.90;;;;;;4893592;29;20056;-80
2021/03/28 04:53:01;;;;;;;17.08;3.97;;;;;;;;;;4866453;29;19935;-80
2021/03/28 04:56:00;;;;;;;19.80;3.65;;;9.20;99.90;;;;;;4895863;29;20048;-80
2021/03/28 04:58:58;;;;;;;16.75;3.92;;;9.20;99.90;;;;;;4894034;29;20068;-81
2021/03/28 05:01:43;;;;;;;24.13;5.07;;;9.30;99.90;;;;;;4875223;29;20262;-80
2021/03/28 05:04:45;;;;;;;18.75;4.13;;;9.20;99.90;;;;;;4882629;29;20063;-81
2021/03/28 05:07:53;;;;;;;22.70;2.83;;;9.30;99.90;;;;;;4860849;29;20053;-82
2021/03/28 05:11:15;;;;;;;21.05;4.55;;;9.20;99.90;;;;;;4878468;29;20079;-79
2021/03/28 05:14:25;;;;;;;23.45;3.95;;;9.20;99.90;;;;;;4832928;29;20058;-81
2021/03/28 05:17:11;;;;;;;33.95;9.65;;;;;;;;;;4887347;29;20064;-81
2021/03/28 05:19:56;;;;;;;19.73;4.47;;;9.20;99.90;;;;;;4882339;29;20508;-80
2021/03/28 05:22:51;;;;;;;27.05;7.55;;;9.10;99.90;;;;;;4896253;29;20048;-80
2021/03/28 05:25:32;;;;;;;18.85;3.60;;;9.30;99.90;;;;;;4895793;29;20505;-80
2021/03/28 05:28:29;;;;;;;28.00;6.75;;;9.40;99.90;;;;;;4905272;29;20840;-80
2021/03/28 05:31:14;;;;;;;20.80;5.57;;;9.10;99.90;;;;;;4891859;29;20060;-80
2021/03/28 05:34:19;;;;;;;19.27;5.65;;;9.90;99.90;;;;;;4894138;29;20361;-80
2021/03/28 05:37:24;;;;;;;19.10;5.13;;;9.20;99.90;;;;;;4892245;29;20045;-79
2021/03/28 05:40:22;;;;;;;24.38;5.80;;;9.30;99.90;;;;;;4893530;29;20052;-81
2021/03/28 05:43:07;;;;;;;22.92;4.55;;;9.30;99.90;;;;;;4893554;29;20052;-80
2021/03/28 05:45:35;;;;;;;15.88;5.15;;;;;;;;;;4886755;29;20428;-81
2021/03/28 05:48:30;;;;;;;22.33;4.22;;;9.30;99.90;;;;;;4893814;29;20536;-79
2021/03/28 05:51:27;;;;;;;14.73;4.32;;;9.30;99.90;;;;;;4898543;29;20064;-81
2021/03/28 05:54:16;;;;;;;15.55;4.25;;;9.40;99.90;;;;;;4893810;29;20420;-81
2021/03/28 05:57:18;;;;;;;16.15;4.40;;;9.40;99.90;;;;;;4894921;29;20580;-79
2021/03/28 05:59:48;;;;;;;27.13;5.70;;;9.40;99.90;;;;;;4890222;29;20061;-79
2021/03/28 06:02:54;;;;;;;19.35;5.88;;;9.50;99.90;;;;;;4880144;29;20049;-80
2021/03/28 06:06:01;;;;;;;21.77;8.77;;;9.50;99.90;;;;;;4883576;29;20064;-80
2021/03/28 06:09:05;;;;;;;13.93;5.20;;;9.50;99.90;;;;;;4896465;29;20067;-81
2021/03/28 06:12:19;;;;;;;25.25;6.60;;;9.50;99.90;;;;;;4885547;29;20531;-79
2021/03/28 06:14:47;;;;;;;14.32;4.95;;;;;;;;;;4869807;29;20053;-79
2021/03/28 06:17:32;;;;;;;41.03;8.52;;;9.40;99.90;;;;;;4892292;29;20063;-80
2021/03/28 06:20:22;;;;;;;17.83;5.22;;;9.60;99.90;;;;;;4893240;29;20077;-81
2021/03/28 06:22:58;;;;;;;16.77;3.55;;;9.50;99.90;;;;;;4873014;29;20722;-80
2021/03/28 06:26:02;;;;;;;26.67;5.40;;;9.50;99.90;;;;;;4894362;29;20061;-80
2021/03/28 06:28:30;;;;;;;13.38;4.18;;;;;;;;;;4896356;29;20142;-82
2021/03/28 06:30:58;;;;;;;23.67;5.80;;;;;;;;;;4893310;29;20418;-80
2021/03/28 06:33:54;;;;;;;19.30;7.05;;;9.70;99.90;;;;;;4893346;29;20056;-80
2021/03/28 06:36:43;;;;;;;13.10;6.53;;;9.50;99.90;;;;;;4889695;29;20056;-81
2021/03/28 06:39:50;;;;;;;17.25;4.80;;;9.70;99.90;;;;;;4876779;29;20504;-80
2021/03/28 06:42:18;;;;;;;14.90;6.55;;;;;;;;;;4883255;29;20512;-83
2021/03/28 06:44:51;;;;;;;24.65;6.88;;;9.70;99.90;;;;;;4874342;29;20436;-80
2021/03/28 06:47:46;;;;;;;16.92;6.00;;;9.80;99.90;;;;;;4892799;29;20524;-81
2021/03/28 06:50:51;;;;;;;17.52;5.40;;;9.70;99.90;;;;;;4893657;29;20385;-82
2021/03/28 06:54:08;;;;;;;21.83;5.78;;;9.90;99.90;;;;;;4894066;29;20520;-81
2021/03/28 06:56:41;;;;;;;15.10;3.85;;;;;;;;;;4898122;29;20044;-83
2021/03/28 06:59:34;;;;;;;17.02;4.18;;;9.90;99.90;;;;;;4892212;29;20144;-83
2021/03/28 07:02:28;;;;;;;13.82;3.75;;;9.90;99.90;;;;;;4902119;29;20064;-81
2021/03/28 07:05:17;;;;;;;27.88;5.28;;;10.00;99.90;;;;;;4906823;29;20060;-83
2021/03/28 07:08:10;;;;;;;12.50;3.55;;;10.10;99.90;;;;;;4908348;29;20358;-81
2021/03/28 07:10:57;;;;;;;20.10;4.65;;;;;;;;;;4912239;29;20420;-79
2021/03/28 07:13:34;;;;;;;28.17;7.18;;;10.10;99.90;;;;;;4905694;29;20052;-82
2021/03/28 07:16:24;;;;;;;15.65;4.45;;;10.10;99.90;;;;;;4898492;29;20057;-81
2021/03/28 07:19:29;;;;;;;21.40;5.20;;;10.10;99.90;;;;;;4882980;29;20049;-78
2021/03/28 07:22:00;;;;;;;22.73;4.88;;;;;;;;;;4878679;29;20072;-80
2021/03/28 07:24:46;;;;;;;;;;;10.20;99.90;;;;;;4901765;29;20631;-80
2021/03/28 07:27:47;;;;;;;19.70;5.38;;;10.10;99.90;;;;;;4899837;29;19932;-81
2021/03/28 07:30:33;;;;;;;19.00;4.47;;;10.20;99.90;;;;;;4888747;29;20463;-80
2021/03/28 07:33:30;;;;;;;19.10;6.93;;;10.00;99.90;;;;;;4901015;29;20048;-82
2021/03/28 07:36:11;;;;;;;14.23;5.50;;;;;;;;;;4872956;29;20162;-81
2021/03/28 07:38:57;;;;;;;20.45;5.32;;;10.20;99.90;;;;;;4892636;29;20087;-80
2021/03/28 07:42:03;;;;;;;16.98;4.43;;;10.50;99.90;;;;;;4895448;29;20052;-79
2021/03/28 07:45:07;;;;;;;10.73;5.13;;;10.40;99.90;;;;;;4902388;29;20052;-82
2021/03/28 07:48:10;;;;;;;16.05;5.43;;;10.40;99.90;;;;;;4893324;29;20061;-80
2021/03/28 07:51:02;;;;;;;20.75;5.63;;;10.60;99.90;;;;;;4898444;29;20082;-80
2021/03/28 07:54:04;;;;;;;12.05;3.92;;;10.60;99.90;;;;;;4901833;29;20068;-82
2021/03/28 07:56:56;;;;;;;16.65;4.85;;;10.70;99.90;;;;;;4895429;29;20444;-82
2021/03/28 07:59:44;;;;;;;17.88;5.40;;;10.80;99.90;;;;;;4907821;29;20063;-82
2021/03/28 08:02:11;;;;;;;16.77;4.68;;;;;;;;;;4893114;29;20052;-80
2021/03/28 08:05:16;;;;;;;26.83;4.32;;;11.00;99.90;;;;;;4893977;29;20068;-82
2021/03/28 08:08:04;;;;;;;22.75;7.05;;;10.50;99.90;;;;;;4885441;29;20048;-80
2021/03/28 08:10:57;;;;;;;21.13;5.60;;;11.10;99.90;;;;;;4895424;29;20056;-81
2021/03/28 08:13:46;;;;;;;18.40;5.13;;;11.10;99.90;;;;;;4893438;29;20048;-80
2021/03/28 08:16:14;;;;;;;15.48;5.60;;;;;;;;;;4888896;29;20064;-79
2021/03/28 08:19:25;;;;;;;23.75;6.88;;;11.00;99.90;;;;;;4889598;29;20489;-81
2021/03/28 08:22:14;;;;;;;14.20;3.63;;;11.70;99.90;;;;;;4885715;29;20069;-85
2021/03/28 08:25:18;;;;;;;23.27;5.18;;;11.00;99.90;;;;;;4902977;29;20178;-86
2021/03/28 08:28:11;;;;;;;23.77;4.32;;;11.00;99.90;;;;;;4894009;29;20048;-78
2021/03/28 08:31:12;;;;;;;12.35;4.55;;;10.90;99.90;;;;;;4895888;29;20067;-87
2021/03/28 08:33:58;;;;;;;17.92;4.53;;;10.90;99.90;;;;;;4897941;29;20060;-83
2021/03/28 08:37:01;;;;;;;29.45;4.32;;;10.90;99.90;;;;;;4892421;29;20053;-83
2021/03/28 08:39:47;;;;;;;22.38;5.15;;;10.70;99.90;;;;;;4897258;29;20056;-86
2021/03/28 08:42:14;;;;;;;16.95;4.63;;;;;;;;;;4895041;29;20069;-84
2021/03/28 08:44:42;;;;;;;18.27;3.88;;;;;;;;;;4897904;29;20052;-85
2021/03/28 08:47:46;;;;;;;18.10;3.83;;;11.10;99.90;;;;;;4892249;29;20048;-87
2021/03/28 08:50:43;;;;;;;14.48;3.70;;;10.90;99.90;;;;;;4890589;29;20071;-82
2021/03/28 08:53:11;;;;;;;24.27;5.93;;;;;;;;;;4886525;29;20052;-88
2021/03/28 08:56:10;;;;;;;30.02;6.60;;;11.10;99.90;;;;;;4893963;29;20519;-83
2021/03/28 08:59:08;;;;;;;17.85;4.88;;;11.10;99.90;;;;;;4891587;29;20060;-86
2021/03/28 09:01:52;;;;;;;32.55;7.00;;;10.70;99.90;;;;;;4892817;29;20056;-87
2021/03/28 09:04:19;;;;;;;15.38;4.88;;;;;;;;;;4894071;29;20401;-84
2021/03/28 09:07:07;;;;;;;18.27;4.95;;;11.20;99.90;;;;;;4897763;29;20060;-82
2021/03/28 09:09:38;;;;;;;29.38;4.93;;;;;;;;;;4886624;29;20808;-82
2021/03/28 09:12:05;;;;;;;17.20;6.30;;;;;;;;;;4896562;29;20076;-86
2021/03/28 09:15:11;;;;;;;24.08;4.13;;;11.40;99.90;;;;;;4892951;29;20067;-79
2021/03/28 09:18:01;;;;;;;23.92;4.85;;;11.50;99.90;;;;;;4897777;29;20060;-83
2021/03/28 09:20:29;;;;;;;19.67;4.60;;;;;;;;;;4897286;29;20048;-80
2021/03/28 09:23:15;;;;;;;16.58;4.57;;;11.60;99.90;;;;;;4895616;29;20055;-81
2021/03/28 09:26:04;;;;;;;23.83;6.25;;;11.50;99.90;;;;;;4898922;29;20647;-81
2021/03/28 09:29:02;;;;;;;19.58;5.53;;;11.80;99.90;;;;;;4893054;29;20057;-82
2021/03/28 09:31:42;;;;;;;23.75;4.88;;;;;;;;;;4893226;29;20052;-81
2021/03/28 09:34:12;;;;;;;17.15;4.63;;;;;;;;;;4891830;29;20047;-80
2021/03/28 09:37:17;;;;;;;25.27;5.20;;;11.80;99.90;;;;;;4892578;29;20056;-80
2021/03/28 09:39:56;;;;;;;13.57;4.78;;;12.00;99.90;;;;;;4894644;29;20053;-82
2021/03/28 09:42:39;;;;;;;16.75;3.97;;;11.90;99.90;;;;;;4889276;29;20061;-82
2021/03/28 09:45:36;;;;;;;17.38;4.93;;;11.80;99.90;;;;;;4891972;29;20059;-82
2021/03/28 09:48:03;;;;;;;16.08;3.80;;;;;;;;;;4892807;29;20069;-81
2021/03/28 09:50:47;;;;;;;18.13;5.18;;;12.10;99.90;;;;;;4900058;29;20065;-84
2021/03/28 09:53:20;;;;;;;20.60;3.47;;;;;;;;;;4891366;29;20061;-86
2021/03/28 09:56:35;;;;;;;14.77;3.67;;;12.00;99.90;;;;;;4887422;29;20754;-81
2021/03/28 09:59:30;;;;;;;21.38;5.35;;;12.10;99.90;;;;;;4887765;29;20056;-84
2021/03/28 10:02:26;;;;;;;18.38;5.28;;;12.20;99.90;;;;;;4892528;29;20053;-83
2021/03/28 10:05:12;;;;;;;14.13;3.05;;;12.10;99.90;;;;;;4891042;29;20053;-81
2021/03/28 10:07:57;;;;;;;28.50;7.00;;;12.20;99.90;;;;;;4886975;29;20056;-82
2021/03/28 10:10:49;;;;;;;15.82;3.15;;;12.10;99.90;;;;;;4887202;29;20454;-82
2021/03/28 10:13:42;;;;;;;29.77;8.48;;;12.10;99.90;;;;;;4883761;29;20691;-83
2021/03/28 10:16:13;;;;;;;24.00;5.53;;;12.10;99.90;;;;;;4885736;29;20067;-84
2021/03/28 10:18:59;;;;;;;23.55;4.13;;;12.00;99.90;;;;;;4886727;29;20065;-85
2021/03/28 10:21:57;;;;;;;20.67;4.25;;;12.10;99.90;;;;;;4884004;29;20056;-82
2021/03/28 10:25:02;;;;;;;16.02;4.93;;;12.20;99.90;;;;;;4874831;29;20060;-84
2021/03/28 10:28:11;;;;;;;14.52;3.90;;;12.20;99.90;;;;;;4889860;29;20057;-84
2021/03/28 10:31:10;;;;;;;11.95;4.35;;;;;;;;;;4864279;29;20053;-83
2021/03/28 10:33:39;;;;;;;25.35;3.92;;;;;;;;;;4887542;29;20079;-80
2021/03/28 10:36:40;;;;;;;14.80;3.25;;;12.20;99.90;;;;;;4890722;29;20055;-82
2021/03/28 10:39:44;;;;;;;21.63;6.60;;;12.20;99.90;;;;;;4881272;29;20060;-80
2021/03/28 10:42:33;;;;;;;14.20;3.35;;;12.20;99.90;;;;;;4881382;29;20056;-80
2021/03/28 10:45:19;;;;;;;16.17;3.45;;;12.40;99.90;;;;;;4888296;29;20067;-81
2021/03/28 10:48:14;;;;;;;22.95;7.63;;;12.50;99.90;;;;;;4889919;29;20059;-81
2021/03/28 10:51:20;;;;;;;15.85;3.88;;;12.70;99.90;;;;;;4886599;29;20056;-82
2021/03/28 10:54:25;;;;;;;15.63;3.67;;;12.80;99.90;;;;;;4884176;29;20060;-81
2021/03/28 10:57:12;;;;;;;23.30;4.95;;;12.90;99.90;;;;;;4888368;29;20425;-81
2021/03/28 11:00:06;;;;;;;13.75;4.07;;;13.10;99.90;;;;;;4883938;29;20072;-82
2021/03/28 11:02:51;;;;;;;22.67;6.03;;;13.10;99.90;;;;;;4881396;29;20057;-82
2021/03/28 11:05:37;;;;;;;14.18;3.45;;;;;;;;;;4893531;29;20075;-81
2021/03/28 11:08:16;;;;;;;22.13;3.67;;;13.30;99.90;;;;;;4892607;29;20057;-86
2021/03/28 11:11:11;;;;;;;16.85;5.10;;;13.40;99.90;;;;;;4883047;29;20065;-82
2021/03/28 11:13:48;;;;;;;21.60;3.33;;;13.30;99.90;;;;;;4899409;29;20061;-81
2021/03/28 11:16:33;;;;;;;18.13;4.47;;;13.20;99.90;;;;;;4886226;29;20060;-80
2021/03/28 11:19:22;;;;;;;23.40;4.65;;;13.30;99.90;;;;;;4890291;29;20066;-82
2021/03/28 11:21:51;;;;;;;11.02;4.15;;;;;;;;;;4885506;29;20064;-85
2021/03/28 11:24:18;;;;;;;12.18;3.50;;;;;;;;;;4890532;29;20053;-83
2021/03/28 11:27:34;;;;;;;16.50;4.75;;;13.10;99.90;;;;;;4885120;29;20409;-82
2021/03/28 11:30:18;;;;;;;17.27;5.35;;;13.00;99.90;;;;;;4889801;29;20064;-81
2021/03/28 11:32:46;;;;;;;16.05;3.40;;;;;;;;;;4889886;29;20053;-82
2021/03/28 11:35:19;;;;;;;15.52;4.85;;;13.50;99.90;;;;;;4870440;29;20056;-83
2021/03/28 11:37:52;;;;;;;15.13;5.20;;;13.20;99.90;;;;;;4895871;29;20053;-81
2021/03/28 11:40:19;;;;;;;15.38;3.22;;;;;;;;;;4895069;29;20658;-82
2021/03/28 11:43:11;;;;;;;16.60;3.72;;;13.40;99.90;;;;;;4891367;29;20053;-82
2021/03/28 11:46:05;;;;;;;11.57;2.63;;;13.30;99.90;;;;;;4890488;29;20064;-85
2021/03/28 11:48:38;;;;;;;16.58;5.50;;;13.30;99.90;;;;;;4890882;29;20068;-83
2021/03/28 11:51:35;;;;;;;12.98;2.95;;;13.30;99.90;;;;;;4893933;29;20055;-85
2021/03/28 11:54:09;;;;;;;9.30;2.35;;;13.30;99.90;;;;;;4889195;29;20052;-82
2021/03/28 11:57:05;;;;;;;10.40;3.55;;;13.30;99.90;;;;;;4892290;29;20075;-82
2021/03/28 11:59:41;;;;;;;9.15;5.03;;;13.60;99.90;;;;;;4884316;29;20060;-85
2021/03/28 12:02:12;;;;;;;11.20;3.13;;;13.30;99.90;;;;;;4893227;29;20671;-83
2021/03/28 12:04:47;;;;;;;17.57;5.00;;;12.90;99.90;;;;;;4891899;29;20057;-84
2021/03/28 12:07:39;;;;;;;19.13;3.88;;;12.90;99.90;;;;;;4901336;29;20049;-82
2021/03/28 12:10:07;;;;;;;9.70;3.90;;;;;;;;;;4893332;29;20053;-82
2021/03/28 12:12:49;;;;;;;25.92;5.65;;;13.10;99.90;;;;;;4907880;29;20051;-85
2021/03/28 12:15:45;;;;;;;14.55;3.30;;;13.10;99.90;;;;;;4902368;29;20068;-84
2021/03/28 12:18:40;;;;;;;21.52;6.00;;;12.90;99.90;;;;;;4905217;29;20067;-82
2021/03/28 12:21:07;;;;;;;13.43;6.20;;;;;;;;;;4901106;29;20054;-80
2021/03/28 12:23:35;;;;;;;16.23;3.13;;;;;;;;;;4914793;29;20049;-80
2021/03/28 12:26:17;;;;;;;15.43;4.03;;;13.00;99.90;;;;;;4891609;29;20516;-83
2021/03/28 12:28:53;;;;;;;8.60;3.72;;;12.90;99.90;;;;;;4877608;29;20075;-82
2021/03/28 12:31:30;;;;;;;9.77;4.50;;;12.90;99.90;;;;;;4888271;29;20397;-81
2021/03/28 12:34:17;;;;;;;12.93;4.10;;;12.90;99.90;;;;;;4873174;29;20056;-83
2021/03/28 12:37:02;;;;;;;12.93;2.45;;;12.80;99.90;;;;;;4891516;29;20060;-81
2021/03/28 12:39:52;;;;;;;13.43;5.13;;;12.60;99.90;;;;;;4890900;29;20060;-80
2021/03/28 12:42:40;;;;;;;9.30;2.50;;;12.70;99.90;;;;;;4882304;29;20048;-80
2021/03/28 12:45:08;;;;;;;13.88;2.53;;;;;;;;;;4905105;29;20060;-83
2021/03/28 12:47:35;;;;;;;19.08;4.78;;;;;;;;;;4882872;29;20052;-82
2021/03/28 12:50:16;;;;;;;7.03;2.67;;;;;;;;;;4903973;29;20052;-81
2021/03/28 12:53:01;;;;;;;15.65;4.05;;;12.90;99.90;;;;;;4918419;29;20306;-82
2021/03/28 12:55:29;;;;;;;19.20;4.45;;;;;;;;;;4903279;29;20056;-82
2021/03/28 12:58:13;;;;;;;;;;;13.00;99.90;;;;;;4897653;29;20067;-81
2021/03/28 13:00:40;;;;;;;11.23;3.60;;;;;;;;;;4909615;29;19926;-85
2021/03/28 13:03:14;;;;;;;10.80;3.47;;;;;;;;;;4903836;29;20056;-83
2021/03/28 13:06:09;;;;;;;9.40;2.50;;;12.90;99.90;;;;;;4895968;29;20049;-81
2021/03/28 13:08:47;;;;;;;7.55;3.90;;;13.10;99.90;;;;;;4903892;29;20064;-82
2021/03/28 13:11:15;;;;;;;14.00;4.28;;;13.10;99.90;;;;;;4899015;29;20061;-81
2021/03/28 13:13:50;;;;;;;15.23;3.28;;;13.20;99.90;;;;;;4874506;29;20064;-80
2021/03/28 13:16:24;;;;;;;8.18;2.55;;;13.40;99.90;;;;;;4891223;29;20052;-82
2021/03/28 13:19:00;;;;;;;10.55;3.17;;;13.40;99.90;;;;;;4884858;29;20055;-82
2021/03/28 13:21:36;;;;;;;10.18;4.20;;;13.60;99.90;;;;;;4871012;29;20060;-84
2021/03/28 13:24:15;;;;;;;15.77;3.83;;;13.50;99.90;;;;;;4886309;29;20484;-86
2021/03/28 13:27:03;;;;;;;11.40;4.32;;;13.60;99.90;;;;;;4884315;29;20048;-81
2021/03/28 13:29:36;;;;;;;16.48;4.10;;;13.60;99.90;;;;;;4887038;29;20064;-81
2021/03/28 13:32:26;;;;;;;11.32;4.15;;;13.80;99.90;;;;;;4885281;29;20060;-82
2021/03/28 13:35:04;;;;;;;10.25;3.10;;;13.70;99.90;;;;;;4882167;29;20064;-84
2021/03/28 13:37:55;;;;;;;20.65;7.20;;;13.80;99.90;;;;;;4886589;29;20075;-83
2021/03/28 13:40:24;;;;;;;11.65;2.80;;;;;;;;;;4890169;29;20052;-85
2021/03/28 13:42:52;;;;;;;10.60;2.42;;;;;;;;;;4901289;29;20068;-81
2021/03/28 13:45:21;;;;;;;10.50;3.47;;;;;;;;;;4908623;29;20053;-82
2021/03/28 13:47:48;;;;;;;16.35;4.28;;;;;;;;;;4896431;29;20060;-81
2021/03/28 13:50:25;;;;;;;12.80;5.00;;;;;;;;;;4909490;29;20050;-82
2021/03/28 13:52:55;;;;;;;14.77;3.88;;;13.80;99.90;;;;;;4888761;29;20086;-81
2021/03/28 13:56:03;;;;;;;18.38;3.47;;;13.90;99.90;;;;;;4891290;29;20060;-82
2021/03/28 13:58:34;;;;;;;14.73;3.33;;;;;;;;;;4889703;29;20057;-80
2021/03/28 14:01:05;;;;;;;10.23;2.80;;;;;;;;;;4889896;29;20337;-81
2021/03/28 14:03:36;;;;;;;13.87;3.43;;;13.70;99.90;;;;;;4896767;29;20067;-83
2021/03/28 14:06:21;;;;;;;17.25;4.78;;;;;;;;;;4896338;29;20766;-82
2021/03/28 14:08:57;;;;;;;20.63;6.38;;;13.50;99.90;;;;;;4907590;29;20059;-82
2021/03/28 14:11:33;;;;;;;14.48;3.90;;;13.50;99.90;;;;;;4897081;29;20052;-81
2021/03/28 14:14:14;;;;;;;11.02;3.92;;;13.60;99.90;;;;;;4895663;29;20063;-81
2021/03/28 14:16:43;;;;;;;15.13;4.72;;;13.50;99.90;;;;;;4889602;29;20057;-81
2021/03/28 14:19:32;;;;;;;12.88;3.58;;;13.80;99.90;;;;;;4894240;29;20420;-81
2021/03/28 14:22:29;;;;;;;14.35;3.65;;;13.70;99.90;;;;;;4896830;29;20080;-83
2021/03/28 14:24:59;;;;;;;16.10;8.00;;;14.10;99.90;;;;;;4875379;29;20071;-82
2021/03/28 14:27:35;;;;;;;17.65;3.92;;;14.10;99.90;;;;;;4889414;29;20056;-81
2021/03/28 14:30:20;;;;;;;11.75;2.90;;;14.00;99.90;;;;;;4892424;29;20063;-84
2021/03/28 14:33:13;;;;;;;12.38;4.35;;;14.00;99.90;;;;;;4907307;29;20064;-85
2021/03/28 14:36:07;;;;;;;12.73;4.25;;;14.10;99.90;;;;;;4897065;29;20063;-83
2021/03/28 14:38:42;;;;;;;18.73;3.60;;;;;;;;;;4892111;29;20052;-86
2021/03/28 14:41:48;;;;;;;14.98;3.17;;;13.80;99.90;;;;;;4894452;29;20059;-83